Time;durP1;ratioP1;P1;durP2;ratioP2;P2;SDS_P1;SDS_P2;PMS_P1;PMS_P2;Temp;Humidity;BMP_temperature;BMP_pressure;BME280_temperature;BME280_humidity;BME280_pressure;Samples;Min_cycle;Max_cycle;Signal;HPM_P1;HPM_P2
2022/04/25 00:02:00;;;;;;;0.35;0.35;;;;;;;13.67;50.66;100112.16;5164128;28;20065;-83
2022/04/25 00:04:31;;;;;;;0.63;0.63;;;;;;;13.76;50.07;100118.75;5127296;28;20049;-83
2022/04/25 00:07:02;;;;;;;0.50;0.50;;;;;;;13.78;49.95;100120.38;5126343;28;20031;-82
2022/04/25 00:09:33;;;;;;;0.35;0.35;;;;;;;13.78;50.62;100125.66;5148106;28;20056;-81
2022/04/25 00:12:06;;;;;;;0.50;0.50;;;;;;;13.84;50.19;100135.88;5134676;28;20026;-83
2022/04/25 00:14:37;;;;;;;0.40;0.40;;;;;;;13.89;50.36;100145.34;5156067;28;20045;-83
2022/04/25 00:17:08;;;;;;;0.82;0.82;;;;;;;13.89;50.47;100148.00;5139131;28;20114;-82
2022/04/25 00:19:38;;;;;;;0.25;0.25;;;;;;;13.91;50.22;100148.78;5165779;28;20097;-82
2022/04/25 00:22:09;;;;;;;0.50;0.50;;;;;;;13.93;50.13;100141.63;5154515;28;20304;-83
2022/04/25 00:24:39;;;;;;;0.68;0.68;;;;;;;13.95;50.93;100153.81;5115988;28;20065;-81
2022/04/25 00:27:11;;;;;;;0.52;0.52;;;;;;;13.63;51.59;100160.69;5152156;28;20041;-81
2022/04/25 00:29:41;;;;;;;0.50;0.50;;;;;;;13.49;53.70;100162.22;5133562;28;20043;-82
2022/04/25 00:32:12;;;;;;;0.30;0.30;;;;;;;13.50;52.98;100158.66;5169965;28;20108;-82
2022/04/25 00:34:42;;;;;;;0.30;0.30;;;;;;;13.53;52.04;100155.84;5121164;28;20077;-82
2022/04/25 00:37:13;;;;;;;0.50;0.50;;;;;;;13.64;52.52;100157.97;5150500;28;20076;-82
2022/04/25 00:39:44;;;;;;;0.40;0.40;;;;;;;13.38;53.16;100173.28;5111775;28;20541;-82
2022/04/25 00:42:14;;;;;;;1.08;0.50;;;;;;;13.61;51.60;100168.66;5138694;28;20474;-82
2022/04/25 00:44:45;;;;;;;0.38;0.38;;;;;;;13.64;51.04;100172.94;5112585;28;20034;-82
2022/04/25 00:47:18;;;;;;;0.32;0.32;;;;;;;13.69;51.24;100165.63;5131879;28;20551;-82
2022/04/25 00:49:48;;;;;;;0.30;0.30;;;;;;;13.68;51.04;100159.53;5110240;28;20044;-81
2022/04/25 00:52:20;;;;;;;0.47;0.47;;;;;;;13.37;52.39;100154.84;5120832;28;20026;-82
2022/04/25 00:54:51;;;;;;;0.45;0.45;;;;;;;13.54;51.57;100154.94;5120549;28;20057;-82
2022/04/25 00:57:21;;;;;;;0.50;0.50;;;;;;;13.44;52.60;100153.66;5120586;28;20042;-82
2022/04/25 00:59:52;;;;;;;0.20;0.20;;;;;;;13.30;53.38;100159.56;5135630;28;20069;-81
2022/04/25 01:02:26;;;;;;;0.40;0.40;;;;;;;13.29;53.23;100165.78;5138526;28;20034;-82
2022/04/25 01:04:57;;;;;;;0.65;0.65;;;;;;;13.44;52.53;100168.63;5118696;28;20135;-81
2022/04/25 01:07:27;;;;;;;0.73;0.73;;;;;;;13.34;53.28;100184.00;5119600;28;20300;-82
2022/04/25 01:10:00;;;;;;;0.30;0.30;;;;;;;13.46;52.28;100191.34;5149127;28;20046;-82
2022/04/25 01:12:31;;;;;;;0.70;0.70;;;;;;;13.44;52.23;100180.00;5120344;28;20026;-82
2022/04/25 01:15:09;;;;;;;0.30;0.30;;;;;;;13.42;51.31;100184.53;5115179;28;20132;-82
2022/04/25 01:17:40;;;;;;;0.38;0.38;;;;;;;13.37;51.93;100194.38;5121640;28;20116;-82
2022/04/25 01:20:11;;;;;;;0.40;0.40;;;;;;;13.38;51.68;100186.44;5136005;28;20379;-82
2022/04/25 01:22:53;;;;;;;0.80;0.65;;;;;;;13.36;51.27;100180.34;5135884;28;20034;-82
2022/04/25 01:28:13;;;;;;;0.43;0.43;;;;;;;13.32;51.23;100180.56;5150176;28;20444;-82
2022/04/25 01:30:44;;;;;;;0.52;0.52;;;;;;;13.29;51.50;100186.84;5142404;28;20041;-82
2022/04/25 01:33:14;;;;;;;0.65;0.65;;;;;;;13.32;51.71;100183.22;5145874;28;20077;-81
2022/04/25 01:35:45;;;;;;;0.40;0.40;;;;;;;13.36;51.56;100179.47;5133836;28;20085;-82
2022/04/25 01:38:15;;;;;;;0.55;0.55;;;;;;;13.28;51.75;100168.44;5130953;28;20046;-82
2022/04/25 01:40:46;;;;;;;0.32;0.32;;;;;;;13.31;53.10;100170.94;5128556;28;20544;-83
2022/04/25 01:43:16;;;;;;;0.68;0.68;;;;;;;13.35;52.51;100177.78;5132911;28;20042;-82
2022/04/25 01:45:47;;;;;;;0.52;0.52;;;;;;;13.36;51.69;100174.22;5132886;28;20053;-84
2022/04/25 01:48:17;;;;;;;0.50;0.50;;;;;;;13.36;52.01;100176.84;5158522;28;20034;-82
2022/04/25 01:50:49;;;;;;;0.70;0.70;;;;;;;13.35;51.68;100170.75;5132622;28;20061;-82
2022/04/25 01:53:23;;;;;;;0.30;0.30;;;;;;;13.28;51.86;100168.44;5123889;28;20587;-82
2022/04/25 01:55:54;;;;;;;0.30;0.30;;;;;;;13.32;52.19;100167.41;5135260;28;20046;-82
2022/04/25 01:58:25;;;;;;;0.55;0.55;;;;;;;13.30;52.32;100162.22;5119819;28;20049;-82
2022/04/25 02:00:55;;;;;;;0.30;0.30;;;;;;;13.27;52.05;100161.47;5127477;28;20022;-82
2022/04/25 02:03:26;;;;;;;0.45;0.38;;;;;;;13.34;52.62;100168.19;5154521;28;20050;-82
2022/04/25 02:05:56;;;;;;;0.30;0.30;;;;;;;13.26;51.89;100157.16;5131724;28;20027;-82
2022/04/25 02:08:27;;;;;;;0.30;0.30;;;;;;;13.31;52.75;100155.16;5133133;28;20052;-82
2022/04/25 02:13:56;;;;;;;0.63;0.63;;;;;;;13.23;52.38;100151.09;5132811;28;20053;-82
2022/04/25 02:16:27;;;;;;;0.50;0.50;;;;;;;13.28;52.35;100155.28;5114421;28;20258;-81
2022/04/25 02:18:58;;;;;;;0.68;0.68;;;;;;;13.24;53.47;100157.22;5132090;28;20382;-82
2022/04/25 02:21:28;;;;;;;0.90;0.68;;;;;;;13.25;52.19;100147.53;5115118;28;20235;-83
2022/04/25 02:23:59;;;;;;;1.23;1.08;;;;;;;13.25;52.14;100144.91;5148390;28;20380;-82
2022/04/25 02:26:32;;;;;;;0.73;0.73;;;;;;;13.18;52.24;100145.19;5134247;28;20030;-81
2022/04/25 02:29:03;;;;;;;0.63;0.63;;;;;;;13.15;52.64;100149.72;5129355;28;20413;-81
2022/04/25 02:31:33;;;;;;;6.45;2.75;;;;;;;13.12;52.48;100153.38;5115642;28;20038;-83
2022/04/25 02:34:04;;;;;;;0.55;0.55;;;;;;;13.20;52.55;100159.13;5119059;28;20046;-82
2022/04/25 02:36:35;;;;;;;0.50;0.50;;;;;;;13.13;52.49;100165.63;5116887;28;20142;-81
2022/04/25 02:39:08;;;;;;;0.30;0.30;;;;;;;13.12;53.10;100174.44;5145318;28;20042;-81
2022/04/25 02:41:39;;;;;;;0.47;0.47;;;;;;;12.94;53.22;100186.69;5133880;28;20041;-82
2022/04/25 02:44:09;;;;;;;0.30;0.30;;;;;;;12.91;52.76;100185.06;5132819;28;20057;-83
2022/04/25 02:46:42;;;;;;;0.82;0.82;;;;;;;12.93;52.83;100184.13;5132282;28;20069;-83
2022/04/25 02:49:13;;;;;;;0.57;0.47;;;;;;;12.84;53.14;100191.53;5115211;28;20457;-82
2022/04/25 02:51:46;;;;;;;0.95;0.95;;;;;;;12.79;53.54;100192.66;5147099;28;20023;-81
2022/04/25 02:54:17;;;;;;;;;;;;;;;12.85;52.78;100198.47;5117363;28;20038;-82
2022/04/25 02:56:48;;;;;;;0.85;0.85;;;;;;;12.83;52.70;100202.97;5132668;28;19940;-82
2022/04/25 02:59:20;;;;;;;0.98;0.98;;;;;;;12.83;53.15;100205.59;5127654;28;20571;-81
2022/04/25 03:01:51;;;;;;;0.55;0.55;;;;;;;12.72;53.32;100208.72;5115913;28;20050;-82
2022/04/25 03:04:21;;;;;;;0.40;0.40;;;;;;;12.78;53.22;100207.56;5131550;28;20072;-83
2022/04/25 03:06:53;;;;;;;0.30;0.30;;;;;;;12.71;53.50;100203.50;5133090;28;20304;-81
2022/04/25 03:09:27;;;;;;;0.32;0.32;;;;;;;12.67;54.74;100208.06;5145293;28;20046;-82
2022/04/25 03:11:58;;;;;;;0.30;0.30;;;;;;;12.66;54.31;100216.03;5146184;28;20331;-82
2022/04/25 03:14:29;;;;;;;0.60;0.60;;;;;;;12.58;53.41;100217.22;5129771;28;20061;-82
2022/04/25 03:17:01;;;;;;;0.77;0.77;;;;;;;12.58;53.12;100211.97;5130983;28;20030;-82
2022/04/25 03:19:35;;;;;;;0.60;0.60;;;;;;;12.59;52.92;100213.66;5112648;28;20050;-82
2022/04/25 03:22:06;;;;;;;;;;;;;;;12.54;53.08;100215.63;5131459;28;20431;-82
2022/04/25 03:24:39;;;;;;;0.70;0.70;;;;;;;12.49;53.94;100211.47;5148462;28;20038;-82
2022/04/25 03:27:09;;;;;;;0.77;0.77;;;;;;;12.49;53.35;100222.88;5133479;28;20085;-81
2022/04/25 03:29:40;;;;;;;0.95;0.95;;;;;;;12.42;53.69;100211.75;5118427;28;20235;-82
2022/04/25 03:32:10;;;;;;;2.08;1.58;;;;;;;12.43;53.84;100224.00;5135563;28;20031;-81
2022/04/25 03:34:41;;;;;;;0.40;0.40;;;;;;;12.44;53.81;100214.31;5141600;28;20536;-82
2022/04/25 03:37:13;;;;;;;0.98;0.98;;;;;;;12.37;53.15;100221.63;5146720;28;20026;-83
2022/04/25 03:39:43;;;;;;;0.68;0.68;;;;;;;12.36;53.76;100216.41;5134191;28;20065;-82
2022/04/25 03:42:16;;;;;;;0.60;0.60;;;;;;;12.38;53.28;100218.09;5129994;28;20044;-83
2022/04/25 03:44:47;;;;;;;1.02;1.02;;;;;;;12.31;53.12;100216.63;5133018;28;20043;-82
2022/04/25 03:47:17;;;;;;;0.90;0.90;;;;;;;12.23;53.18;100211.69;5150144;28;20030;-82
2022/04/25 03:49:48;;;;;;;0.45;0.45;;;;;;;12.29;53.49;100221.09;5130507;28;20459;-82
2022/04/25 03:52:18;;;;;;;0.70;0.68;;;;;;;12.26;53.44;100215.97;5155411;28;20098;-82
2022/04/25 03:57:39;;;;;;;0.55;0.55;;;;;;;12.19;53.88;100215.34;5133808;28;20501;-82
2022/04/25 04:00:11;;;;;;;0.47;0.47;;;;;;;12.16;53.69;100219.88;5130297;28;20120;-83
2022/04/25 04:02:41;;;;;;;0.63;0.63;;;;;;;12.15;54.24;100219.03;5135870;28;20034;-82
2022/04/25 04:05:12;;;;;;;0.47;0.47;;;;;;;12.13;54.00;100218.25;5136179;28;20154;-82
2022/04/25 04:07:43;;;;;;;0.60;0.60;;;;;;;12.11;54.64;100226.22;5152770;28;20038;-81
2022/04/25 04:10:14;;;;;;;1.27;1.23;;;;;;;12.14;54.62;100222.59;5152783;28;20039;-82
2022/04/25 04:12:48;;;;;;;1.85;1.02;;;;;;;12.07;54.41;100221.97;5153028;28;20019;-81
2022/04/25 04:15:19;;;;;;;0.50;0.50;;;;;;;12.03;53.81;100230.06;5121538;28;20101;-82
2022/04/25 04:17:49;;;;;;;0.52;0.52;;;;;;;12.06;54.34;100224.69;5114630;28;20031;-82
2022/04/25 04:20:20;;;;;;;0.73;0.73;;;;;;;12.09;54.40;100225.41;5163248;28;20030;-81
2022/04/25 04:22:50;;;;;;;0.40;0.40;;;;;;;11.98;54.61;100229.41;5131945;28;20027;-80
2022/04/25 04:25:24;;;;;;;0.43;0.43;;;;;;;11.86;54.41;100234.19;5117258;28;20037;-80
2022/04/25 04:27:55;;;;;;;;;;;;;;;11.82;53.87;100230.00;5148402;28;20292;-80
2022/04/25 04:30:25;;;;;;;0.35;0.35;;;;;;;11.86;54.05;100220.22;5116635;28;19910;-80
2022/04/25 04:32:56;;;;;;;0.70;0.70;;;;;;;11.79;54.45;100222.22;5112605;28;20247;-80
2022/04/25 04:38:15;;;;;;;0.30;0.30;;;;;;;11.78;55.05;100226.63;5145856;28;20042;-80
2022/04/25 04:40:46;;;;;;;0.43;0.43;;;;;;;11.77;55.00;100229.34;5134913;28;20042;-79
2022/04/25 04:43:16;;;;;;;0.73;0.73;;;;;;;11.73;55.07;100230.34;5115262;28;20039;-80
2022/04/25 04:45:47;;;;;;;0.68;0.68;;;;;;;11.53;56.10;100237.22;5123200;28;20034;-80
2022/04/25 04:48:18;;;;;;;1.15;1.05;;;;;;;11.49;55.32;100233.88;5137693;28;20042;-80
2022/04/25 04:50:55;;;;;;;1.20;0.75;;;;;;;11.52;55.25;100237.31;5137779;28;20069;-80
2022/04/25 04:53:25;;;;;;;0.75;0.75;;;;;;;11.53;55.43;100247.75;5107893;28;20030;-80
2022/04/25 04:55:56;;;;;;;1.73;1.63;;;;;;;11.59;55.62;100247.53;5132681;28;20072;-80
2022/04/25 04:58:28;;;;;;;0.32;0.32;;;;;;;11.62;55.36;100247.38;5116547;28;20172;-80
2022/04/25 05:00:59;;;;;;;0.80;0.80;;;;;;;11.54;55.52;100252.09;5134034;28;20041;-80
2022/04/25 05:03:30;;;;;;;0.68;0.68;;;;;;;11.50;56.34;100250.50;5132204;28;20114;-80
2022/04/25 05:06:00;;;;;;;0.52;0.52;;;;;;;11.48;56.41;100252.34;5130588;28;20103;-80
2022/04/25 05:08:31;;;;;;;5.40;1.27;;;;;;;11.52;56.18;100260.94;5114556;28;20256;-81
2022/04/25 05:11:02;;;;;;;0.50;0.50;;;;;;;11.50;55.29;100259.22;5131568;28;20046;-81
2022/04/25 05:13:33;;;;;;;0.65;0.65;;;;;;;11.51;55.58;100260.09;5148076;28;20042;-81
2022/04/25 05:16:04;;;;;;;0.82;0.82;;;;;;;11.61;56.66;100264.06;5133542;28;20090;-81
2022/04/25 05:18:35;;;;;;;0.88;0.88;;;;;;;11.25;59.15;100268.94;5117712;28;20457;-81
2022/04/25 05:21:08;;;;;;;0.70;0.70;;;;;;;11.44;57.43;100269.97;5120362;28;20038;-81
2022/04/25 05:23:38;;;;;;;0.60;0.60;;;;;;;11.49;56.92;100269.81;5146949;28;20710;-81
2022/04/25 05:26:09;;;;;;;0.93;0.93;;;;;;;11.55;56.67;100272.19;5112298;28;20046;-81
2022/04/25 05:28:39;;;;;;;1.63;1.38;;;;;;;11.57;56.96;100270.38;5113820;28;20103;-80
2022/04/25 05:31:13;;;;;;;0.70;0.70;;;;;;;11.52;57.33;100267.09;5115020;28;20037;-81
2022/04/25 05:33:44;;;;;;;5.07;1.20;;;;;;;11.56;56.50;100278.31;5128112;28;20227;-82
2022/04/25 05:36:14;;;;;;;0.70;0.70;;;;;;;11.58;56.43;100272.09;5128931;28;20033;-80
2022/04/25 05:38:45;;;;;;;0.60;0.60;;;;;;;11.60;56.18;100272.91;5124363;28;20046;-81
2022/04/25 05:41:15;;;;;;;1.15;0.80;;;;;;;11.57;56.22;100269.53;5115172;28;20034;-80
2022/04/25 05:43:46;;;;;;;0.75;0.75;;;;;;;11.56;56.41;100273.06;5132201;28;20049;-80
2022/04/25 05:46:20;;;;;;;2.55;1.55;;;;;;;11.59;56.13;100275.56;5117411;28;20022;-81
2022/04/25 05:51:59;;;;;;;0.70;0.70;;;;;;;11.57;55.91;100275.63;5148539;28;20120;-80
2022/04/25 05:54:31;;;;;;;0.50;0.50;;;;;;;11.59;56.07;100284.31;5146356;28;20045;-81
2022/04/25 05:57:02;;;;;;;0.40;0.40;;;;;;;11.71;57.55;100280.34;5115391;28;20034;-81
2022/04/25 05:59:32;;;;;;;0.63;0.63;;;;;;;11.67;60.58;100288.41;5130076;28;20045;-80
2022/04/25 06:02:03;;;;;;;0.38;0.38;;;;;;;11.69;58.08;100289.22;5115185;28;20022;-80
2022/04/25 06:04:34;;;;;;;0.35;0.35;;;;;;;11.71;57.00;100295.25;5111211;28;20047;-80
2022/04/25 06:07:05;;;;;;;0.90;0.90;;;;;;;11.74;57.28;100297.78;5132577;28;20065;-80
2022/04/25 06:09:41;;;;;;;0.50;0.50;;;;;;;11.72;57.94;100304.84;5112055;28;20694;-80
2022/04/25 06:12:11;;;;;;;0.55;0.55;;;;;;;11.83;57.23;100305.31;5132893;28;20109;-80
2022/04/25 06:14:44;;;;;;;0.88;0.88;;;;;;;11.73;58.60;100310.06;5147630;28;20053;-80
2022/04/25 06:17:15;;;;;;;0.98;0.90;;;;;;;11.90;58.28;100319.91;5116132;28;20393;-80
2022/04/25 06:19:46;;;;;;;0.30;0.30;;;;;;;11.77;60.30;100321.31;5124006;28;20053;-80
2022/04/25 06:22:20;;;;;;;0.80;0.80;;;;;;;11.82;58.34;100320.19;5159200;28;20053;-79
2022/04/25 06:24:51;;;;;;;0.85;0.85;;;;;;;11.78;58.00;100325.63;5113146;28;20100;-79
2022/04/25 06:27:22;;;;;;;0.75;0.75;;;;;;;11.82;58.15;100332.50;5121977;28;20105;-80
2022/04/25 06:29:58;;;;;;;0.95;0.95;;;;;;;11.82;58.03;100333.34;5124784;28;20038;-80
2022/04/25 06:32:29;;;;;;;0.90;0.90;;;;;;;11.81;58.13;100333.41;5124617;28;20034;-79
2022/04/25 06:35:00;;;;;;;0.88;0.88;;;;;;;11.80;58.48;100329.06;5154952;28;20095;-79
2022/04/25 06:37:31;;;;;;;1.25;1.23;;;;;;;11.94;58.29;100337.28;5121769;28;20031;-80
2022/04/25 06:40:01;;;;;;;0.80;0.80;;;;;;;11.91;58.18;100332.16;5128578;28;20061;-80
2022/04/25 06:42:35;;;;;;;0.93;0.93;;;;;;;11.70;60.63;100332.97;5113222;28;20030;-80
2022/04/25 06:45:05;;;;;;;1.73;1.48;;;;;;;11.85;58.42;100339.41;5128990;28;20513;-80
2022/04/25 06:47:36;;;;;;;0.60;0.60;;;;;;;11.91;57.84;100336.53;5112592;28;20038;-82
2022/04/25 06:50:07;;;;;;;3.05;1.90;;;;;;;11.94;57.65;100347.78;5127322;28;20038;-80
2022/04/25 06:52:38;;;;;;;0.35;0.35;;;;;;;11.85;59.12;100352.56;5126598;28;20045;-80
2022/04/25 06:55:10;;;;;;;0.93;0.93;;;;;;;12.00;58.78;100345.88;5129780;28;20453;-80
2022/04/25 06:57:43;;;;;;;2.00;1.02;;;;;;;11.80;60.18;100355.34;5133159;28;20030;-80
2022/04/25 07:00:17;;;;;;;1.00;1.00;;;;;;;11.92;58.92;100349.66;5113703;28;20104;-80
2022/04/25 07:02:48;;;;;;;1.08;0.95;;;;;;;11.87;58.35;100353.34;5150475;28;20027;-80
2022/04/25 07:05:19;;;;;;;0.65;0.65;;;;;;;11.88;58.84;100350.66;5148608;28;20724;-80
2022/04/25 07:07:51;;;;;;;1.42;1.20;;;;;;;11.93;57.75;100355.75;5111302;28;20032;-80
2022/04/25 07:10:22;;;;;;;0.50;0.50;;;;;;;11.89;58.04;100355.00;5129159;28;20038;-79
2022/04/25 07:12:53;;;;;;;0.93;0.93;;;;;;;11.98;57.50;100363.50;5127322;28;20575;-79
2022/04/25 07:15:24;;;;;;;0.93;0.93;;;;;;;11.64;59.88;100361.19;5128767;28;20497;-80
2022/04/25 07:17:56;;;;;;;1.02;1.02;;;;;;;11.89;58.16;100359.41;5130825;28;20034;-80
2022/04/25 07:20:27;;;;;;;0.60;0.60;;;;;;;11.99;57.65;100359.94;5131972;28;20030;-80
2022/04/25 07:28:48;;;;;;;0.70;0.70;;;;;;;11.81;59.90;100370.22;5131040;28;20038;-80
2022/04/25 07:31:22;;;;;;;0.73;0.73;;;;;;;11.83;61.03;100363.13;5121708;28;20417;-80
2022/04/25 07:33:56;;;;;;;0.85;0.85;;;;;;;11.95;59.07;100365.28;5134827;28;20538;-80
2022/04/25 07:36:27;;;;;;;2.00;1.10;;;;;;;12.10;59.03;100368.28;5135280;28;20041;-80
2022/04/25 07:38:58;;;;;;;1.17;1.08;;;;;;;12.11;58.44;100370.84;5118543;28;20042;-80
2022/04/25 07:41:28;;;;;;;4.03;1.75;;;;;;;12.14;57.86;100372.50;5135636;28;20045;-80
2022/04/25 07:43:59;;;;;;;0.82;0.82;;;;;;;11.84;62.16;100371.88;5135405;28;20034;-80
2022/04/25 07:46:32;;;;;;;1.00;1.00;;;;;;;11.87;61.75;100372.59;5134296;28;20118;-80
2022/04/25 07:49:04;;;;;;;0.60;0.60;;;;;;;12.11;59.02;100376.09;5136611;28;20294;-80
2022/04/25 07:51:42;;;;;;;0.85;0.85;;;;;;;12.00;61.45;100377.44;5144787;28;20100;-80
2022/04/25 07:54:14;;;;;;;0.82;0.82;;;;;;;12.22;59.29;100375.69;5154005;28;20050;-80
2022/04/25 07:56:45;;;;;;;1.33;1.25;;;;;;;12.31;58.86;100381.50;5135359;28;20038;-80
2022/04/25 07:59:15;;;;;;;1.52;1.42;;;;;;;12.42;57.67;100381.94;5138104;28;20413;-80
2022/04/25 08:01:48;;;;;;;0.98;0.98;;;;;;;12.36;58.96;100384.78;5118377;28;20041;-80
2022/04/25 08:04:19;;;;;;;1.15;0.65;;;;;;;12.46;57.82;100385.28;5116959;28;20532;-80
2022/04/25 08:06:49;;;;;;;1.20;1.13;;;;;;;12.41;58.35;100383.69;5131300;28;20053;-81
2022/04/25 08:09:20;;;;;;;0.88;0.88;;;;;;;12.52;57.80;100383.25;5127842;28;20043;-80
2022/04/25 08:17:56;;;;;;;1.00;1.00;;;;;;;12.66;57.69;100393.22;5113764;28;20318;-79
2022/04/25 08:20:20;;;;;;;1.38;1.27;;;;;;;12.67;57.67;100400.19;5131558;28;20043;-80
2022/04/25 08:22:50;;;;;;;1.20;1.10;;;;;;;12.72;57.40;100408.78;5116655;28;20030;-80
2022/04/25 08:25:22;;;;;;;0.75;0.75;;;;;;;12.74;57.33;100412.19;5132747;28;20388;-80
2022/04/25 08:27:53;;;;;;;0.82;0.82;;;;;;;12.55;59.39;100406.81;5137048;28;20057;-80
2022/04/25 08:30:28;;;;;;;1.23;1.23;;;;;;;12.53;59.11;100407.81;5152360;28;20038;-80
2022/04/25 08:33:00;;;;;;;0.43;0.43;;;;;;;12.69;58.72;100415.91;5128649;28;20053;-80
2022/04/25 08:35:31;;;;;;;0.70;0.70;;;;;;;12.72;57.71;100416.69;5134824;28;20693;-80
2022/04/25 08:38:02;;;;;;;1.35;1.25;;;;;;;12.67;57.91;100415.16;5128907;28;20233;-81
2022/04/25 08:40:33;;;;;;;0.85;0.85;;;;;;;12.84;57.36;100424.97;5132944;28;20030;-81
2022/04/25 08:43:06;;;;;;;0.63;0.63;;;;;;;12.68;57.21;100427.41;5151506;28;20029;-81
2022/04/25 08:45:37;;;;;;;7.13;0.85;;;;;;;12.74;56.98;100432.41;5116788;28;20018;-81
2022/04/25 08:48:12;;;;;;;0.50;0.50;;;;;;;12.84;56.55;100425.84;5109997;28;20056;-80
2022/04/25 08:50:44;;;;;;;1.17;0.93;;;;;;;12.87;56.43;100432.75;5128861;28;20089;-80
2022/04/25 08:53:17;;;;;;;0.88;0.88;;;;;;;12.93;56.15;100434.28;5147802;28;20399;-80
2022/04/25 08:55:48;;;;;;;1.77;1.67;;;;;;;12.79;57.33;100440.97;5134039;28;20045;-80
2022/04/25 08:58:21;;;;;;;2.22;1.02;;;;;;;12.84;57.45;100431.13;5168192;28;20117;-80
2022/04/25 09:00:53;;;;;;;1.40;1.30;;;;;;;12.80;57.68;100442.69;5153215;28;20133;-81
2022/04/25 09:03:26;;;;;;;1.58;1.27;;;;;;;12.87;57.38;100449.41;5150506;28;20037;-81
2022/04/25 09:05:58;;;;;;;0.40;0.40;;;;;;;12.88;57.42;100443.22;5118068;28;20046;-81
2022/04/25 09:08:28;;;;;;;2.03;1.83;;;;;;;12.87;58.11;100454.66;5133401;28;20394;-81
2022/04/25 09:13:49;;;;;;;1.92;1.60;;;;;;;12.95;57.23;100459.63;5142477;28;20517;-81
2022/04/25 09:16:19;;;;;;;1.40;1.30;;;;;;;12.90;57.71;100467.72;5113995;28;20041;-81
2022/04/25 09:18:50;;;;;;;0.65;0.65;;;;;;;12.88;58.14;100472.19;5121551;28;20030;-81
2022/04/25 09:21:21;;;;;;;1.58;1.48;;;;;;;12.98;57.54;100471.81;5119827;28;20100;-81
2022/04/25 09:23:52;;;;;;;1.48;1.38;;;;;;;13.02;57.15;100474.25;5144318;28;20038;-80
2022/04/25 09:26:27;;;;;;;5.70;2.10;;;;;;;13.12;57.37;100472.09;5140280;28;20018;-81
2022/04/25 09:29:00;;;;;;;1.17;1.15;;;;;;;13.10;56.99;100468.66;5151733;28;20042;-80
2022/04/25 09:31:31;;;;;;;1.85;1.70;;;;;;;13.11;57.19;100475.63;5117114;28;20034;-80
2022/04/25 09:37:39;;;;;;;2.67;1.48;;;;;;;13.25;57.47;100469.78;5152366;28;20040;-82
2022/04/25 09:40:11;;;;;;;1.20;1.15;;;;;;;12.98;60.04;100466.53;5112922;28;20072;-81
2022/04/25 09:42:41;;;;;;;1.38;1.35;;;;;;;13.13;58.22;100462.44;5131659;28;20026;-81
2022/04/25 09:45:15;;;;;;;1.25;1.20;;;;;;;13.22;57.49;100467.31;5131129;28;20128;-81
2022/04/25 09:47:46;;;;;;;2.15;1.85;;;;;;;13.20;57.79;100469.16;5131057;28;20070;-81
2022/04/25 09:50:16;;;;;;;3.03;1.88;;;;;;;13.17;58.23;100466.63;5126116;28;20056;-81
2022/04/25 09:52:56;;;;;;;1.58;1.20;;;;;;;13.19;58.48;100470.91;5111260;28;20109;-81
2022/04/25 09:55:29;;;;;;;1.52;1.45;;;;;;;13.26;58.10;100468.03;5131015;28;20524;-81
2022/04/25 09:58:22;;;;;;;1.60;1.45;;;;;;;13.29;58.33;100465.25;5122553;28;20489;-81
2022/04/25 10:00:53;;;;;;;2.30;1.90;;;;;;;13.13;60.18;100471.16;5146246;28;20046;-81
2022/04/25 10:03:37;;;;;;;1.67;1.48;;;;;;;13.11;59.66;100475.63;5138713;28;20130;-81
2022/04/25 10:06:08;;;;;;;0.98;0.93;;;;;;;13.01;60.09;100466.44;5135889;28;20147;-81
2022/04/25 10:08:40;;;;;;;5.05;2.65;;;;;;;13.21;59.23;100479.59;5132952;28;20617;-81
2022/04/25 10:11:13;;;;;;;1.50;1.40;;;;;;;13.32;58.18;100480.94;5114164;28;20049;-81
2022/04/25 10:13:46;;;;;;;1.85;1.75;;;;;;;13.30;58.08;100485.41;5145854;28;20140;-81
2022/04/25 10:16:20;;;;;;;1.75;1.13;;;;;;;13.15;60.29;100484.25;5160300;28;20072;-81
2022/04/25 10:18:55;;;;;;;1.25;1.15;;;;;;;13.30;59.08;100483.66;5115874;28;20034;-81
2022/04/25 10:21:29;;;;;;;2.75;2.03;;;;;;;13.27;60.64;100488.16;5124209;28;20065;-81
2022/04/25 10:23:59;;;;;;;2.58;2.38;;;;;;;13.37;58.86;100490.38;5119863;28;20081;-80
2022/04/25 10:26:30;;;;;;;1.80;1.70;;;;;;;13.41;58.65;100492.88;5114605;28;20031;-81
2022/04/25 10:29:13;;;;;;;3.63;2.65;;;;;;;13.41;58.33;100488.50;5129029;28;20038;-81
2022/04/25 10:31:47;;;;;;;2.38;2.17;;;;;;;13.43;58.28;100486.63;5130137;28;20104;-81
2022/04/25 10:34:17;;;;;;;2.95;2.47;;;;;;;13.52;57.91;100493.28;5135175;28;20046;-81
2022/04/25 10:36:48;;;;;;;0.93;0.93;;;;;;;13.52;58.42;100488.03;5134983;28;20045;-81
2022/04/25 10:39:27;;;;;;;2.40;1.83;;;;;;;13.46;59.66;100494.41;5129637;28;20038;-81
2022/04/25 10:45:04;;;;;;;;;;;;;;;13.69;58.33;100495.19;5113682;28;20042;-81
2022/04/25 10:47:53;;;;;;;1.73;1.63;;;;;;;13.64;58.30;100497.19;5115389;28;20191;-80
2022/04/25 10:50:24;;;;;;;3.35;2.15;;;;;;;13.68;59.22;100498.75;5129618;28;20381;-81
2022/04/25 10:53:01;;;;;;;2.03;1.92;;;;;;;13.62;60.16;100501.66;5132389;28;20477;-80
2022/04/25 10:55:42;;;;;;;1.52;1.33;;;;;;;13.72;59.86;100495.06;5116737;28;20053;-80
2022/04/25 10:58:14;;;;;;;1.20;1.20;;;;;;;13.83;59.04;100492.81;5122570;28;20098;-81
2022/04/25 11:00:47;;;;;;;1.77;1.67;;;;;;;13.88;61.11;100494.38;5123121;28;20038;-81
2022/04/25 11:03:23;;;;;;;2.00;1.90;;;;;;;13.99;60.16;100500.03;5140242;28;20046;-81
2022/04/25 11:05:58;;;;;;;1.60;1.52;;;;;;;13.96;60.16;100492.25;5130042;28;20022;-81
2022/04/25 11:08:33;;;;;;;2.20;2.00;;;;;;;14.12;59.52;100503.00;5131883;28;20118;-81
2022/04/25 11:11:14;;;;;;;2.28;2.08;;;;;;;14.12;58.74;100506.47;5113635;28;20056;-81
2022/04/25 11:13:50;;;;;;;2.40;2.25;;;;;;;14.06;59.32;100509.41;5123494;28;20109;-81
2022/04/25 11:16:26;;;;;;;2.50;2.30;;;;;;;14.22;58.23;100516.59;5130629;28;20030;-80
2022/04/25 11:19:20;;;;;;;1.13;1.08;;;;;;;14.24;57.80;100517.41;5126619;28;20400;-81
2022/04/25 11:21:55;;;;;;;4.80;1.60;;;;;;;14.13;58.21;100516.09;5110088;28;20025;-80
2022/04/25 11:24:35;;;;;;;1.50;1.40;;;;;;;14.06;58.29;100512.03;5127400;28;20097;-81
2022/04/25 11:27:09;;;;;;;0.75;0.75;;;;;;;14.14;57.74;100514.31;5142875;28;20656;-81
2022/04/25 11:29:47;;;;;;;1.30;1.20;;;;;;;14.15;57.25;100519.53;5152594;28;20130;-80
2022/04/25 11:32:26;;;;;;;5.28;2.30;;;;;;;14.04;58.09;100526.22;5143743;28;20037;-80
2022/04/25 11:35:09;;;;;;;1.08;1.08;;;;;;;14.15;57.28;100522.16;5117079;28;20042;-81
2022/04/25 11:37:40;;;;;;;2.72;2.25;;;;;;;14.15;57.28;100524.81;5163636;28;20035;-80
2022/04/25 11:40:10;;;;;;;1.58;1.48;;;;;;;13.90;59.05;100514.47;5125379;28;20120;-80
2022/04/25 11:42:43;;;;;;;0.65;0.65;;;;;;;14.11;57.59;100525.84;5146659;28;20066;-80
2022/04/25 11:45:14;;;;;;;1.20;1.02;;;;;;;14.21;57.15;100517.53;5117813;28;20517;-81
2022/04/25 11:47:45;;;;;;;1.33;1.25;;;;;;;14.21;57.72;100522.81;5124763;28;20034;-81
2022/04/25 11:50:19;;;;;;;1.35;1.25;;;;;;;14.16;57.20;100521.25;5139135;28;20073;-81
2022/04/25 11:52:52;;;;;;;0.68;0.68;;;;;;;14.19;57.12;100524.66;5144624;28;20041;-81
2022/04/25 11:55:34;;;;;;;1.92;1.83;;;;;;;14.04;56.95;100524.44;5134368;28;20039;-80
2022/04/25 11:58:05;;;;;;;3.35;1.33;;;;;;;14.24;58.28;100527.97;5143614;28;20108;-81
2022/04/25 12:00:35;;;;;;;2.78;1.92;;;;;;;14.20;57.90;100521.09;5129381;28;20505;-81
2022/04/25 12:03:19;;;;;;;1.10;1.00;;;;;;;14.33;58.20;100516.97;5115784;28;20038;-82
2022/04/25 12:05:50;;;;;;;2.80;1.45;;;;;;;14.31;58.09;100518.84;5136861;28;20350;-81
2022/04/25 12:16:50;;;;;;;1.40;1.30;;;;;;;14.64;57.80;100524.31;5155603;28;20105;-81
2022/04/25 12:19:22;;;;;;;5.78;2.10;;;;;;;14.71;56.85;100519.63;5132798;28;20129;-81
2022/04/25 12:22:03;;;;;;;1.55;1.45;;;;;;;14.71;58.16;100522.28;5131420;28;20427;-81
2022/04/25 12:24:34;;;;;;;2.92;1.70;;;;;;;14.65;57.62;100517.25;5119151;28;20284;-80
2022/04/25 12:27:15;;;;;;;1.15;1.05;;;;;;;14.81;56.83;100506.00;5157681;28;20218;-80
2022/04/25 12:30:06;;;;;;;5.22;1.88;;;;;;;15.03;56.52;100509.28;5149149;28;20102;-80
2022/04/25 12:32:40;;;;;;;1.45;1.35;;;;;;;15.07;55.86;100513.50;5139239;28;20045;-80
2022/04/25 12:35:18;;;;;;;1.63;1.52;;;;;;;14.95;56.46;100514.97;5143927;28;20038;-80